Time;durP1;ratioP1;P1;durP2;ratioP2;P2;SDS_P1;SDS_P2;PMS_P1;PMS_P2;Temp;Humidity;BMP_temperature;BMP_pressure;BME280_temperature;BME280_humidity;BME280_pressure;Samples;Min_cycle;Max_cycle;Signal;HPM_P1;HPM_P2
2022/10/09 00:02:14;;;;;;;4.40;2.10;;;;;;;6.40;82.53;102481.06;4974868;28;20034;-93
2022/10/09 00:04:39;;;;;;;2.63;1.90;;;;;;;6.38;82.62;102481.84;4975526;28;20031;-92
2022/10/09 00:07:04;;;;;;;2.10;1.90;;;;;;;6.37;82.51;102480.09;4975260;28;20379;-93
2022/10/09 00:09:30;;;;;;;1.92;1.73;;;;;;;6.38;82.50;102489.59;4975567;28;20037;-93
2022/10/09 00:11:55;;;;;;;5.72;2.25;;;;;;;6.35;82.58;102482.63;4975276;28;20073;-93
2022/10/09 00:14:20;;;;;;;2.83;2.00;;;;;;;6.33;82.74;102484.28;4974908;28;20082;-92
2022/10/09 00:16:45;;;;;;;2.63;2.00;;;;;;;6.29;82.53;102483.34;4975130;28;20109;-92
2022/10/09 00:19:11;;;;;;;2.80;1.70;;;;;;;6.26;82.79;102482.34;4975291;28;20041;-93
2022/10/09 00:21:36;;;;;;;2.83;2.00;;;;;;;6.24;82.92;102479.75;4974967;28;20019;-92
2022/10/09 00:24:03;;;;;;;3.95;1.98;;;;;;;6.21;83.02;102479.63;4975082;28;20031;-93
2022/10/09 00:26:30;;;;;;;3.13;2.00;;;;;;;6.21;82.45;102482.22;4975327;28;20107;-92
2022/10/09 00:28:56;;;;;;;2.42;2.13;;;;;;;6.19;82.81;102483.91;4975597;28;20030;-93
2022/10/09 00:31:21;;;;;;;2.25;1.80;;;;;;;6.15;82.90;102493.22;4975107;28;20023;-93
2022/10/09 00:33:47;;;;;;;2.20;2.00;;;;;;;6.14;83.01;102482.88;4974742;28;20023;-92
2022/10/09 00:36:19;;;;;;;3.55;2.10;;;;;;;6.12;83.00;102493.16;4974523;28;20030;-92
2022/10/09 00:38:44;;;;;;;2.33;1.80;;;;;;;6.11;82.82;102496.56;4974705;28;20487;-91
2022/10/09 00:41:15;;;;;;;2.03;1.85;;;;;;;6.10;83.13;102491.34;4975045;28;20035;-92
2022/10/09 00:43:42;;;;;;;2.15;1.95;;;;;;;6.08;83.11;102487.88;4974926;28;20026;-92
2022/10/09 00:46:32;;;;;;;2.47;1.70;;;;;;;6.07;83.07;102486.13;4974861;28;20030;-92
2022/10/09 00:49:03;;;;;;;3.13;1.90;;;;;;;6.06;83.17;102481.78;4974961;28;20165;-92
2022/10/09 00:51:30;;;;;;;2.63;2.00;;;;;;;6.05;83.16;102485.19;4975399;28;20022;-92
2022/10/09 00:53:56;;;;;;;;;;;;;;;6.02;83.07;102489.41;4975143;28;20372;-92
2022/10/09 00:56:22;;;;;;;3.13;2.10;;;;;;;5.99;83.14;102484.16;4974834;28;19921;-93
2022/10/09 00:58:52;;;;;;;3.13;2.10;;;;;;;5.98;83.18;102484.09;4974981;28;20027;-92
2022/10/09 01:01:17;;;;;;;2.38;1.98;;;;;;;5.98;83.30;102479.81;4974844;28;20047;-93
2022/10/09 01:03:42;;;;;;;4.20;2.00;;;;;;;5.94;83.06;102472.81;4975340;28;20026;-93
2022/10/09 01:06:35;;;;;;;2.30;2.10;;;;;;;5.95;83.14;102476.25;4974418;28;20101;-93
2022/10/09 01:09:11;;;;;;;3.10;2.00;;;;;;;5.93;83.03;102473.66;4974893;28;20026;-93
2022/10/09 01:11:43;;;;;;;2.50;2.10;;;;;;;5.93;82.95;102472.75;4975055;28;20499;-92
2022/10/09 01:14:19;;;;;;;3.75;2.10;;;;;;;5.89;83.09;102466.66;4974744;28;20061;-92
2022/10/09 01:16:55;;;;;;;3.37;2.10;;;;;;;5.88;83.16;102467.47;4974898;28;20027;-93
2022/10/09 01:19:31;;;;;;;2.53;2.03;;;;;;;5.86;83.43;102474.28;4976429;28;20396;-92
2022/10/09 01:22:12;;;;;;;2.92;2.10;;;;;;;5.84;83.39;102473.38;4978327;28;20058;-93
2022/10/09 01:24:40;;;;;;;2.17;2.03;;;;;;;5.81;83.51;102468.97;4978657;28;20042;-92
2022/10/09 01:27:24;;;;;;;2.33;1.98;;;;;;;5.78;83.57;102476.63;4978279;28;20025;-93
2022/10/09 01:29:55;;;;;;;2.72;1.95;;;;;;;5.71;83.60;102466.94;4978444;28;20098;-92
2022/10/09 01:32:28;;;;;;;2.75;2.13;;;;;;;5.69;83.69;102469.50;4978059;28;20066;-92
2022/10/09 01:34:55;;;;;;;2.45;2.10;;;;;;;5.65;83.63;102467.63;4977605;28;20030;-93
2022/10/09 01:37:22;;;;;;;3.10;1.90;;;;;;;5.63;83.40;102461.56;4978274;28;20027;-93
2022/10/09 01:39:48;;;;;;;3.47;1.92;;;;;;;5.59;83.81;102458.84;4978106;28;20058;-93
2022/10/09 01:42:14;;;;;;;2.63;1.83;;;;;;;5.54;83.80;102462.16;4977834;28;20081;-92
2022/10/09 01:44:41;;;;;;;2.30;1.77;;;;;;;5.52;83.83;102460.34;4978199;28;20097;-92
2022/10/09 01:47:13;;;;;;;2.40;1.77;;;;;;;5.48;83.88;102459.38;4977512;28;20047;-93
2022/10/09 01:49:58;;;;;;;3.78;2.00;;;;;;;5.44;83.89;102457.56;4977955;28;20048;-93
2022/10/09 01:52:42;;;;;;;2.60;1.90;;;;;;;5.43;84.13;102457.47;4977791;28;20034;-92
2022/10/09 01:55:18;;;;;;;2.72;2.10;;;;;;;5.39;83.96;102448.78;4977645;28;20030;-93
2022/10/09 01:57:47;;;;;;;;;;;;;;;5.37;84.03;102448.75;4978112;28;20089;-93
2022/10/09 02:00:13;;;;;;;2.67;1.98;;;;;;;5.34;84.13;102448.66;4977349;28;19956;-92
2022/10/09 02:02:41;;;;;;;3.88;2.10;;;;;;;5.32;83.99;102437.41;4977462;28;20026;-93
2022/10/09 02:05:09;;;;;;;3.53;2.20;;;;;;;5.29;83.81;102437.34;4977310;28;20026;-93
2022/10/09 02:07:36;;;;;;;3.35;1.77;;;;;;;5.28;83.99;102439.84;4977608;28;20046;-93
2022/10/09 02:10:03;;;;;;;2.42;1.90;;;;;;;5.25;83.79;102443.19;4977134;28;20026;-93
2022/10/09 02:12:33;;;;;;;2.40;2.15;;;;;;;5.23;83.81;102431.97;4977123;28;20033;-92
2022/10/09 02:14:59;;;;;;;2.95;2.20;;;;;;;5.23;84.05;102429.41;4977330;28;20050;-93
2022/10/09 02:17:32;;;;;;;2.17;1.98;;;;;;;5.22;84.13;102436.25;4976876;28;20468;-93
2022/10/09 02:20:23;;;;;;;2.30;2.10;;;;;;;5.20;84.21;102431.88;4977163;28;20125;-92
2022/10/09 02:22:50;;;;;;;3.60;2.13;;;;;;;5.17;84.06;102426.63;4977644;28;20066;-93
2022/10/09 02:25:17;;;;;;;2.88;2.00;;;;;;;5.16;84.35;102428.31;4976630;28;20471;-92
2022/10/09 02:27:44;;;;;;;4.72;2.40;;;;;;;5.16;84.30;102425.75;4977199;28;20476;-92
2022/10/09 02:30:09;;;;;;;2.90;2.20;;;;;;;5.16;83.92;102424.88;4976606;28;20031;-93
2022/10/09 02:32:35;;;;;;;2.75;2.15;;;;;;;5.10;84.26;102420.41;4976152;28;20086;-93
2022/10/09 02:35:00;;;;;;;2.65;2.10;;;;;;;5.06;84.21;102418.56;4977030;28;20161;-92
2022/10/09 02:37:26;;;;;;;2.92;2.00;;;;;;;5.04;84.19;102412.47;4976865;28;20379;-92
2022/10/09 02:39:51;;;;;;;3.35;2.45;;;;;;;5.04;84.48;102415.94;4976263;28;20038;-92
2022/10/09 02:42:16;;;;;;;3.53;2.30;;;;;;;5.02;84.17;102409.88;4976693;28;20038;-93
2022/10/09 02:45:17;;;;;;;2.90;2.42;;;;;;;5.03;84.39;102411.63;4976365;28;20027;-93
2022/10/09 02:47:43;;;;;;;3.33;2.47;;;;;;;4.99;84.52;102409.75;4957729;29;20035;-93
2022/10/09 02:50:08;;;;;;;4.30;2.40;;;;;;;4.99;84.45;102412.31;4957018;29;20086;-93
2022/10/09 02:52:33;;;;;;;4.38;2.58;;;;;;;5.00;84.46;102419.22;4957074;29;20488;-93
2022/10/09 02:54:59;;;;;;;2.35;2.08;;;;;;;4.95;84.41;102416.50;4957325;29;20047;-93
2022/10/09 02:57:24;;;;;;;2.83;2.30;;;;;;;4.94;84.43;102419.03;4973026;28;20114;-93
2022/10/09 02:59:49;;;;;;;4.35;2.53;;;;;;;4.93;84.46;102410.44;4976208;28;20035;-92
2022/10/09 03:02:14;;;;;;;2.72;2.33;;;;;;;4.91;84.50;102408.63;4976353;28;20015;-93
2022/10/09 03:04:40;;;;;;;2.80;2.50;;;;;;;4.90;84.39;102410.31;4976594;28;20026;-93
2022/10/09 03:07:05;;;;;;;3.40;2.40;;;;;;;4.88;84.51;102409.41;4975788;28;20027;-92
2022/10/09 03:09:31;;;;;;;4.57;2.80;;;;;;;4.85;84.15;102401.59;4976627;28;20113;-93
2022/10/09 03:11:57;;;;;;;3.50;2.67;;;;;;;4.85;84.87;102406.72;4976347;28;20102;-93
2022/10/09 03:14:22;;;;;;;3.85;2.72;;;;;;;4.83;84.72;102407.50;4976624;28;20053;-93
2022/10/09 03:16:47;;;;;;;3.60;2.88;;;;;;;4.79;84.73;102409.97;4976315;28;20033;-93
2022/10/09 03:19:12;;;;;;;3.35;2.47;;;;;;;4.76;84.57;102411.56;4975627;28;20031;-94
2022/10/09 03:21:38;;;;;;;2.47;2.08;;;;;;;4.72;84.98;102399.41;4975941;28;20039;-93
2022/10/09 03:24:03;;;;;;;2.55;2.15;;;;;;;4.66;84.90;102406.94;4976102;28;20546;-94
2022/10/09 03:26:28;;;;;;;2.53;2.10;;;;;;;4.62;84.88;102404.25;4976279;28;20030;-94
2022/10/09 03:28:54;;;;;;;3.17;2.33;;;;;;;4.63;84.97;102406.00;4976047;28;20061;-94
2022/10/09 03:31:21;;;;;;;3.25;2.30;;;;;;;4.62;85.18;102403.34;4976355;28;20070;-94
2022/10/09 03:33:47;;;;;;;3.75;2.63;;;;;;;4.62;84.94;102401.69;4976401;28;20081;-94
2022/10/09 03:36:35;;;;;;;3.97;2.60;;;;;;;4.65;84.98;102398.31;4975782;28;20026;-93
2022/10/09 03:39:00;;;;;;;3.58;2.45;;;;;;;4.61;84.83;102391.34;4975539;28;20029;-94
2022/10/09 03:41:25;;;;;;;3.75;2.50;;;;;;;4.64;85.10;102394.91;4975551;28;20455;-94
2022/10/09 03:43:50;;;;;;;2.72;2.20;;;;;;;4.62;84.93;102393.97;4975814;28;20053;-93
2022/10/09 03:46:16;;;;;;;3.90;2.30;;;;;;;4.62;84.78;102395.63;4976409;28;20030;-94
2022/10/09 03:48:41;;;;;;;3.05;2.30;;;;;;;4.64;84.82;102396.56;4975114;28;20467;-94
2022/10/09 03:51:06;;;;;;;4.55;2.40;;;;;;;4.61;84.80;102388.78;4975274;28;20042;-94
2022/10/09 03:53:32;;;;;;;3.60;2.63;;;;;;;4.59;85.21;102381.00;4975717;28;20027;-95
2022/10/09 03:56:06;;;;;;;3.85;2.50;;;;;;;4.62;84.94;102399.09;4975650;28;20471;-94
2022/10/09 03:58:31;;;;;;;2.70;2.40;;;;;;;4.61;84.99;102393.94;4975393;28;20034;-94
2022/10/09 04:00:57;;;;;;;3.85;2.50;;;;;;;4.60;85.00;102393.03;4974387;28;20050;-94
2022/10/09 04:03:22;;;;;;;4.07;2.50;;;;;;;4.60;84.81;102398.19;4978083;28;20027;-95
2022/10/09 04:05:48;;;;;;;3.30;2.35;;;;;;;4.57;84.84;102402.34;4979745;28;20031;-95
2022/10/09 04:08:14;;;;;;;4.93;2.55;;;;;;;4.58;84.99;102401.53;4974882;28;20476;-93
2022/10/09 04:10:39;;;;;;;4.32;2.58;;;;;;;4.58;85.33;102404.09;4975084;28;20019;-95
2022/10/09 04:13:05;;;;;;;4.07;2.58;;;;;;;4.57;85.12;102412.63;4975404;28;20037;-95
2022/10/09 04:15:30;;;;;;;3.42;2.40;;;;;;;4.55;85.04;102403.97;4975532;28;20090;-95
2022/10/09 04:17:55;;;;;;;3.35;2.50;;;;;;;4.52;85.06;102403.88;4974751;28;20022;-94
2022/10/09 04:20:30;;;;;;;4.55;2.80;;;;;;;4.52;84.97;102404.75;4974859;28;20031;-95
2022/10/09 04:22:55;;;;;;;2.92;2.40;;;;;;;4.48;84.91;102403.78;4975263;28;20022;-95
2022/10/09 04:25:21;;;;;;;3.67;2.42;;;;;;;4.45;85.11;102398.53;4975647;28;20086;-95
2022/10/09 04:27:46;;;;;;;4.97;2.90;;;;;;;4.45;85.14;102402.78;4975144;28;20486;-95
2022/10/09 04:30:12;;;;;;;3.80;2.70;;;;;;;4.44;85.10;102403.63;4974634;28;20110;-95
2022/10/09 04:32:50;;;;;;;2.95;2.30;;;;;;;4.41;84.77;102398.38;4975171;28;20025;-95
2022/10/09 04:35:15;;;;;;;3.75;2.53;;;;;;;4.37;84.99;102386.22;4975307;28;20476;-94
2022/10/09 04:37:41;;;;;;;3.60;2.70;;;;;;;4.32;84.98;102392.09;4984873;28;20030;-94
2022/10/09 04:40:07;;;;;;;2.72;2.35;;;;;;;4.28;84.75;102394.47;4977325;28;20030;-95
2022/10/09 04:42:32;;;;;;;3.75;2.63;;;;;;;4.24;85.12;102393.47;4974711;28;20559;-95
2022/10/09 04:44:57;;;;;;;2.42;2.17;;;;;;;4.23;85.32;102390.88;4975039;28;20054;-94
2022/10/09 04:47:23;;;;;;;3.38;2.42;;;;;;;4.23;85.17;102384.03;4975188;28;20034;-94
2022/10/09 04:49:48;;;;;;;3.95;2.60;;;;;;;4.20;85.20;102385.59;4974614;28;20038;-94
2022/10/09 04:52:14;;;;;;;4.63;2.65;;;;;;;4.18;85.14;102386.44;4974516;28;20484;-95
2022/10/09 04:54:39;;;;;;;3.95;2.72;;;;;;;4.18;84.76;102383.00;4977610;28;20114;-94
2022/10/09 04:57:04;;;;;;;4.45;2.60;;;;;;;4.17;85.33;102387.25;4978821;28;20038;-95
2022/10/09 04:59:29;;;;;;;3.90;2.70;;;;;;;4.16;85.28;102388.09;4979191;28;20081;-94
2022/10/09 05:01:55;;;;;;;3.58;2.50;;;;;;;4.16;85.47;102385.53;4978385;28;20058;-94
2022/10/09 05:04:20;;;;;;;4.90;2.75;;;;;;;4.15;85.64;102382.88;4979127;28;20034;-95
2022/10/09 05:06:45;;;;;;;4.07;2.60;;;;;;;4.14;85.29;102378.56;4984810;28;20027;-93
2022/10/09 05:09:11;;;;;;;4.32;2.60;;;;;;;4.11;85.54;102375.91;4993251;28;20081;-95
2022/10/09 05:11:36;;;;;;;4.45;2.75;;;;;;;4.12;85.61;102370.81;4978870;28;20023;-94
2022/10/09 05:14:01;;;;;;;3.75;2.45;;;;;;;4.11;85.48;102365.63;4977840;28;20034;-95
2022/10/09 05:16:28;;;;;;;5.05;2.72;;;;;;;4.07;85.28;102372.31;4979041;28;20459;-94
2022/10/09 05:18:55;;;;;;;3.15;2.50;;;;;;;4.05;85.49;102366.28;4978460;28;20023;-94
2022/10/09 05:21:35;;;;;;;3.65;2.60;;;;;;;4.07;85.42;102363.75;4977946;28;20030;-94
2022/10/09 05:24:01;;;;;;;3.88;2.80;;;;;;;4.06;85.32;102367.13;4977992;28;20090;-94
2022/10/09 05:26:26;;;;;;;2.75;2.20;;;;;;;3.99;85.33;102355.75;4978447;28;20030;-94
2022/10/09 05:28:52;;;;;;;3.15;2.60;;;;;;;3.96;85.29;102369.38;4978614;28;20043;-93
2022/10/09 05:31:27;;;;;;;4.05;2.67;;;;;;;3.93;85.58;102358.97;4978266;28;20030;-94
2022/10/09 05:33:54;;;;;;;2.80;2.42;;;;;;;3.93;85.38;102366.69;4977843;28;20451;-93
2022/10/09 05:36:19;;;;;;;4.60;2.55;;;;;;;3.94;85.52;102358.16;4978185;28;20027;-94
2022/10/09 05:38:45;;;;;;;2.38;2.17;;;;;;;3.94;85.48;102358.16;4978041;28;20042;-94
2022/10/09 05:41:28;;;;;;;3.42;2.55;;;;;;;3.93;85.92;102368.41;4977493;28;20034;-93
2022/10/09 05:43:54;;;;;;;3.95;2.60;;;;;;;3.91;85.64;102364.88;4977903;28;20038;-94
2022/10/09 05:46:22;;;;;;;2.58;2.30;;;;;;;3.89;85.60;102369.09;4978237;28;20173;-93
2022/10/09 05:48:53;;;;;;;4.95;2.53;;;;;;;3.87;86.57;102363.91;4978157;28;20419;-94
2022/10/09 05:51:21;;;;;;;4.13;2.25;;;;;;;3.80;85.71;102360.22;4978112;28;20041;-93
2022/10/09 05:53:48;;;;;;;3.08;2.25;;;;;;;3.81;85.65;102361.09;4977642;28;20026;-93
2022/10/09 05:56:15;;;;;;;4.10;2.40;;;;;;;3.79;85.92;102363.63;4977514;28;20031;-93
2022/10/09 05:59:07;;;;;;;4.45;2.55;;;;;;;3.79;86.16;102363.63;4978119;28;20058;-93
2022/10/09 06:02:00;;;;;;;2.55;2.30;;;;;;;3.78;86.10;102359.28;4977723;28;20137;-92
2022/10/09 06:04:51;;;;;;;3.00;2.13;;;;;;;3.82;86.25;102357.72;4975068;28;20542;-93
2022/10/09 06:07:16;;;;;;;4.65;2.60;;;;;;;3.80;85.86;102360.22;4977787;28;20042;-93
2022/10/09 06:09:41;;;;;;;3.17;2.20;;;;;;;3.81;86.22;102364.56;4977466;28;20388;-93
2022/10/09 06:12:20;;;;;;;3.03;2.20;;;;;;;3.82;86.08;102361.16;4980465;28;20098;-94
2022/10/09 06:14:46;;;;;;;4.47;2.50;;;;;;;3.83;86.00;102355.19;4978163;28;20030;-94
2022/10/09 06:17:14;;;;;;;3.60;2.60;;;;;;;3.90;86.14;102366.56;4976810;28;20460;-91
2022/10/09 06:19:45;;;;;;;3.80;2.70;;;;;;;3.91;86.46;102364.88;4977078;28;20117;-89
2022/10/09 06:22:10;;;;;;;3.22;2.40;;;;;;;3.93;86.22;102360.69;4977176;28;20031;-89
2022/10/09 06:24:40;;;;;;;3.90;2.33;;;;;;;3.98;86.14;102366.84;4976975;28;20683;-90
2022/10/09 06:27:06;;;;;;;2.60;2.20;;;;;;;3.99;86.35;102361.78;4976855;28;20030;-92
2022/10/09 06:29:40;;;;;;;2.83;2.38;;;;;;;4.04;86.09;102366.19;4977173;28;20032;-95
2022/10/09 06:32:05;;;;;;;3.33;2.35;;;;;;;4.05;86.07;102363.72;4977203;28;20027;-95
2022/10/09 06:34:34;;;;;;;2.97;2.40;;;;;;;4.08;86.53;102373.22;4977231;28;20025;-94
2022/10/09 06:37:08;;;;;;;2.40;2.00;;;;;;;4.08;86.37;102374.06;4976483;28;20023;-95
2022/10/09 06:39:33;;;;;;;2.30;2.10;;;;;;;4.09;86.17;102372.41;4976970;28;20038;-94
2022/10/09 06:42:05;;;;;;;2.13;1.92;;;;;;;4.11;86.34;102371.63;4976650;28;20023;-95
2022/10/09 06:44:30;;;;;;;2.63;1.90;;;;;;;4.15;86.13;102370.03;4976577;28;20031;-94
2022/10/09 06:46:56;;;;;;;1.70;1.60;;;;;;;4.26;86.56;102371.28;4974676;28;20034;-94
2022/10/09 06:49:23;;;;;;;1.85;1.70;;;;;;;4.45;86.37;102365.09;4966982;28;20055;-95
2022/10/09 06:51:49;;;;;;;2.75;2.00;;;;;;;4.62;86.14;102377.63;4968150;28;20510;-94
2022/10/09 06:54:30;;;;;;;2.30;2.10;;;;;;;4.71;86.37;102369.38;4971125;28;20031;-95
2022/10/09 06:56:56;;;;;;;2.40;2.20;;;;;;;4.70;86.80;102358.22;4956997;28;20039;-95
2022/10/09 06:59:21;;;;;;;2.30;2.10;;;;;;;4.74;86.45;102370.34;4956771;28;20030;-95
2022/10/09 07:01:52;;;;;;;2.10;1.90;;;;;;;4.78;86.55;102371.34;4957099;28;20098;-91
2022/10/09 07:04:18;;;;;;;2.80;2.20;;;;;;;4.83;86.29;102363.78;4957041;29;20027;-94
2022/10/09 07:06:46;;;;;;;2.03;1.80;;;;;;;4.88;86.76;102372.50;4956624;29;20027;-93
2022/10/09 07:09:13;;;;;;;2.60;2.10;;;;;;;4.97;87.04;102371.94;4968331;28;20027;-91
2022/10/09 07:11:44;;;;;;;2.45;2.10;;;;;;;5.03;87.05;102373.03;4976292;28;20109;-89
2022/10/09 07:14:11;;;;;;;2.00;1.90;;;;;;;5.10;87.08;102374.94;4976576;28;20030;-91
2022/10/09 07:16:38;;;;;;;;;;;;;;;5.18;87.55;102374.34;4976081;28;20114;-93
2022/10/09 07:19:06;;;;;;;1.88;1.70;;;;;;;5.22;87.74;102369.34;4964694;28;20000;-92
2022/10/09 07:21:32;;;;;;;2.20;2.00;;;;;;;5.29;88.32;102366.94;4976024;28;20037;-90
2022/10/09 07:23:58;;;;;;;2.97;2.20;;;;;;;5.36;87.55;102371.44;4975665;28;20488;-89
2022/10/09 07:26:26;;;;;;;2.33;2.03;;;;;;;5.46;88.04;102372.59;4975538;28;20467;-90
2022/10/09 07:28:52;;;;;;;2.15;1.95;;;;;;;5.55;88.48;102370.31;4975779;28;20395;-90
2022/10/09 07:31:17;;;;;;;3.17;2.33;;;;;;;5.64;88.93;102368.00;4975461;28;20037;-91
2022/10/09 07:33:46;;;;;;;2.80;2.28;;;;;;;5.77;88.43;102368.38;4975359;28;20110;-91
2022/10/09 07:36:12;;;;;;;4.85;2.80;;;;;;;5.84;88.74;102366.00;4975886;28;20026;-91
2022/10/09 07:38:37;;;;;;;4.97;2.90;;;;;;;5.95;87.85;102370.59;4975789;28;20110;-91
2022/10/09 07:41:08;;;;;;;5.20;3.60;;;;;;;6.04;90.29;102365.72;4974672;28;20030;-89
2022/10/09 07:43:35;;;;;;;4.32;3.20;;;;;;;6.15;89.94;102368.63;4975831;28;20031;-90
2022/10/09 07:46:02;;;;;;;7.40;3.60;;;;;;;6.24;90.03;102366.28;4975397;28;20030;-91
2022/10/09 07:48:28;;;;;;;4.90;3.30;;;;;;;6.32;90.09;102372.53;4974875;28;20023;-91
2022/10/09 07:50:54;;;;;;;4.25;3.08;;;;;;;6.42;91.36;102365.91;4975196;28;20095;-90
2022/10/09 07:53:20;;;;;;;6.40;3.70;;;;;;;6.51;92.34;102366.97;4975677;28;20035;-90
2022/10/09 07:55:46;;;;;;;7.35;4.50;;;;;;;6.61;93.22;102376.69;4974469;28;20127;-90
2022/10/09 07:58:13;;;;;;;10.55;4.35;;;;;;;6.70;92.15;102370.91;4975106;28;20506;-91
2022/10/09 08:00:38;;;;;;;9.98;4.68;;;;;;;6.79;92.76;102374.59;4974833;28;20050;-90
2022/10/09 08:03:04;;;;;;;9.57;4.40;;;;;;;6.88;89.96;102368.78;4974156;28;20027;-91
2022/10/09 08:05:29;;;;;;;6.38;3.78;;;;;;;6.97;89.03;102362.97;4975389;28;20050;-89
2022/10/09 08:07:54;;;;;;;6.63;3.75;;;;;;;7.08;91.48;102358.94;4973830;28;20113;-89
2022/10/09 08:10:20;;;;;;;6.80;3.60;;;;;;;7.16;90.86;102356.56;4974321;28;20054;-90
2022/10/09 08:12:45;;;;;;;4.55;3.40;;;;;;;7.28;90.74;102355.09;4974495;28;20038;-89
2022/10/09 08:15:12;;;;;;;8.35;3.97;;;;;;;7.43;91.84;102355.41;4974459;28;20026;-90
2022/10/09 08:17:37;;;;;;;6.75;3.80;;;;;;;7.55;91.50;102355.69;4976072;28;20086;-89
2022/10/09 08:20:03;;;;;;;6.97;3.78;;;;;;;7.67;89.58;102352.50;4977172;28;20124;-89
2022/10/09 08:22:28;;;;;;;8.27;4.15;;;;;;;7.80;91.66;102345.88;4973956;28;20027;-89
2022/10/09 08:24:53;;;;;;;11.43;5.00;;;;;;;7.95;91.14;102349.59;4974272;28;20030;-89
2022/10/09 08:27:18;;;;;;;11.30;5.37;;;;;;;8.08;89.44;102351.59;4974262;28;20031;-89
2022/10/09 08:29:44;;;;;;;8.53;4.90;;;;;;;8.24;90.66;102346.69;4974069;28;20098;-89
2022/10/09 08:32:09;;;;;;;8.63;4.70;;;;;;;8.39;89.84;102347.00;4974301;28;20034;-90
2022/10/09 08:34:34;;;;;;;8.10;4.50;;;;;;;8.54;90.15;102340.38;4974297;28;20122;-90
2022/10/09 08:36:59;;;;;;;10.63;4.90;;;;;;;8.71;90.00;102343.25;4974626;28;20026;-92
2022/10/09 08:39:29;;;;;;;8.98;5.00;;;;;;;8.87;89.51;102334.88;4974374;28;20039;-89
2022/10/09 08:41:56;;;;;;;10.20;5.10;;;;;;;9.03;87.93;102333.38;4965409;28;20055;-91
2022/10/09 08:44:39;;;;;;;9.40;4.72;;;;;;;9.17;87.74;102337.91;4955778;28;20031;-89
2022/10/09 08:47:18;;;;;;;8.48;4.50;;;;;;;9.32;87.55;102327.78;4974073;28;20022;-89
2022/10/09 08:49:54;;;;;;;8.70;4.72;;;;;;;9.49;87.07;102327.13;4959117;28;20126;-89
2022/10/09 08:52:36;;;;;;;7.00;4.63;;;;;;;9.65;87.32;102336.84;4973984;28;20499;-88
2022/10/09 08:55:20;;;;;;;9.02;4.50;;;;;;;9.82;86.43;102321.50;4974467;28;20038;-89
2022/10/09 08:57:50;;;;;;;8.23;5.15;;;;;;;10.00;86.53;102327.72;4974469;28;20035;-90
2022/10/09 09:00:18;;;;;;;10.77;5.50;;;;;;;10.17;85.13;102326.19;4974055;28;20054;-88
2022/10/09 09:03:25;;;;;;;12.15;6.10;;;;;;;10.33;83.01;102321.13;4974202;28;20035;-89
2022/10/09 09:06:08;;;;;;;11.75;5.30;;;;;;;10.49;84.14;102319.59;4973373;28;20049;-88
2022/10/09 09:08:43;;;;;;;10.95;4.95;;;;;;;10.61;84.13;102311.91;4974177;28;20027;-89
2022/10/09 09:11:35;;;;;;;6.10;4.20;;;;;;;10.78;83.94;102309.44;4974018;28;20085;-89
2022/10/09 09:14:31;;;;;;;6.68;4.05;;;;;;;10.96;84.16;102305.25;4974095;28;20490;-89
2022/10/09 09:17:18;;;;;;;7.45;4.20;;;;;;;11.18;81.18;102301.03;4958187;28;20034;-85
2022/10/09 09:20:19;;;;;;;7.55;4.47;;;;;;;11.36;81.68;102297.66;4973198;28;20027;-90
2022/10/09 09:22:48;;;;;;;6.72;4.20;;;;;;;11.51;81.55;102299.47;4972751;28;20097;-90
2022/10/09 09:25:25;;;;;;;8.85;4.28;;;;;;;11.67;81.68;102289.97;4966287;28;20019;-89
2022/10/09 09:27:59;;;;;;;6.18;3.67;;;;;;;11.85;81.06;102296.13;4961831;28;20018;-90
2022/10/09 09:30:34;;;;;;;7.05;3.97;;;;;;;11.98;79.31;102287.53;4973285;28;20035;-89
2022/10/09 09:33:04;;;;;;;7.93;4.15;;;;;;;12.10;76.64;102285.81;4973392;28;20022;-90
2022/10/09 09:35:50;;;;;;;7.85;4.30;;;;;;;12.23;79.66;102281.47;4967388;28;20035;-90
2022/10/09 09:38:16;;;;;;;6.25;3.70;;;;;;;12.39;79.06;102272.78;4974554;28;20034;-90
2022/10/09 09:40:42;;;;;;;8.67;4.67;;;;;;;12.53;76.68;102265.00;4976470;28;20057;-89
2022/10/09 09:43:17;;;;;;;7.03;4.20;;;;;;;12.68;77.98;102261.50;4977581;28;20126;-88
2022/10/09 09:45:43;;;;;;;8.25;3.70;;;;;;;12.75;78.05;102260.59;4971649;28;20038;-91
2022/10/09 09:48:30;;;;;;;8.00;4.05;;;;;;;12.85;76.47;102258.88;4967817;28;20497;-90
2022/10/09 09:50:55;;;;;;;8.93;4.30;;;;;;;12.97;76.25;102250.13;4977101;28;20031;-91
2022/10/09 09:53:33;;;;;;;4.90;3.43;;;;;;;13.08;76.86;102248.34;4966761;28;20149;-90
2022/10/09 09:55:59;;;;;;;6.53;3.70;;;;;;;13.22;73.95;102242.25;4977375;28;20494;-89
2022/10/09 09:58:35;;;;;;;8.13;4.00;;;;;;;13.33;75.75;102244.81;4977862;28;20026;-90
2022/10/09 10:01:03;;;;;;;5.95;3.05;;;;;;;13.43;74.50;102242.16;4976788;28;20057;-90
2022/10/09 10:03:29;;;;;;;7.13;3.30;;;;;;;13.58;72.67;102237.75;4977664;28;20047;-90
2022/10/09 10:05:55;;;;;;;;;;;;;;;13.65;74.75;102241.19;4977624;28;20026;-90
2022/10/09 10:08:21;;;;;;;5.75;3.60;;;;;;;13.74;73.32;102239.38;4977339;28;19914;-89
2022/10/09 10:10:47;;;;;;;5.63;3.40;;;;;;;13.80;71.06;102238.47;4977314;28;20034;-89
2022/10/09 10:13:17;;;;;;;6.85;3.60;;;;;;;13.86;71.55;102232.34;4961261;28;20031;-90
2022/10/09 10:15:54;;;;;;;6.35;3.83;;;;;;;13.95;71.14;102227.09;4970486;28;20023;-91
2022/10/09 10:18:21;;;;;;;7.30;3.70;;;;;;;14.03;70.42;102224.41;4968306;28;20619;-91
2022/10/09 10:20:54;;;;;;;4.80;3.28;;;;;;;14.10;70.43;102230.44;4977123;28;20031;-89
2022/10/09 10:23:41;;;;;;;6.70;3.55;;;;;;;14.20;72.00;102225.16;4976747;28;20027;-91
2022/10/09 10:26:37;;;;;;;6.05;3.38;;;;;;;14.27;71.54;102219.88;4970988;28;20077;-90
2022/10/09 10:29:12;;;;;;;5.45;3.30;;;;;;;14.41;70.32;102214.53;4975122;28;20023;-89
2022/10/09 10:31:57;;;;;;;4.53;2.80;;;;;;;14.55;71.28;102210.03;4973500;28;20034;-90
2022/10/09 10:34:26;;;;;;;4.63;2.75;;;;;;;14.67;66.25;102212.53;4976962;28;20027;-88
2022/10/09 10:37:21;;;;;;;7.32;3.40;;;;;;;14.77;69.32;102209.81;4975742;28;20464;-89
2022/10/09 10:39:58;;;;;;;7.38;3.20;;;;;;;14.80;69.91;102205.47;4967312;28;20126;-89
2022/10/09 10:42:33;;;;;;;4.35;2.80;;;;;;;14.87;68.23;102202.75;4976088;28;20019;-90
2022/10/09 10:45:14;;;;;;;4.18;2.80;;;;;;;14.92;69.36;102191.38;4976091;28;20059;-91
2022/10/09 10:47:46;;;;;;;6.43;3.08;;;;;;;14.94;68.34;102188.72;4976721;28;20066;-89
2022/10/09 10:50:13;;;;;;;6.00;3.20;;;;;;;15.00;64.16;102182.56;4975705;28;20046;-92
2022/10/09 10:52:53;;;;;;;4.90;3.30;;;;;;;15.07;67.37;102179.00;4975942;28;20089;-88
2022/10/09 10:55:37;;;;;;;5.13;2.60;;;;;;;15.10;65.14;102179.81;4976440;28;20383;-89
2022/10/09 10:58:20;;;;;;;8.55;3.65;;;;;;;15.14;62.21;102170.19;4975907;28;20033;-85
2022/10/09 11:01:20;;;;;;;7.18;3.70;;;;;;;15.20;63.99;102166.63;4966546;28;20499;-87
2022/10/09 11:04:03;;;;;;;4.93;2.80;;;;;;;15.28;67.12;102162.13;4966408;28;20394;-89
2022/10/09 11:06:37;;;;;;;4.88;3.00;;;;;;;15.35;64.47;102158.56;4971167;28;20042;-88
2022/10/09 11:09:25;;;;;;;4.57;2.65;;;;;;;15.40;63.41;102150.66;4961227;28;20031;-89
2022/10/09 11:11:54;;;;;;;4.97;2.95;;;;;;;15.47;64.79;102159.28;4964861;28;20411;-89
2022/10/09 11:15:08;;;;;;;6.70;2.92;;;;;;;15.48;62.12;102151.41;4975564;28;20046;-88
2022/10/09 11:18:01;;;;;;;3.92;2.58;;;;;;;15.50;62.66;102139.16;4954172;29;20059;-92
2022/10/09 11:20:54;;;;;;;7.35;3.20;;;;;;;15.50;64.52;102136.53;4975911;28;20061;-90
2022/10/09 11:23:54;;;;;;;5.88;3.00;;;;;;;15.58;64.55;102134.66;4964694;28;20110;-89
2022/10/09 11:26:53;;;;;;;5.25;2.90;;;;;;;15.59;64.30;102135.53;4972782;28;20419;-92
2022/10/09 11:29:49;;;;;;;5.82;3.10;;;;;;;15.61;63.42;102128.50;4975208;28;20595;-90
2022/10/09 11:32:21;;;;;;;4.97;2.70;;;;;;;15.62;64.04;102125.00;4974807;28;20484;-92
2022/10/09 11:35:12;;;;;;;5.18;3.13;;;;;;;15.64;63.35;102119.78;4976018;28;20037;-94
2022/10/09 11:37:40;;;;;;;4.82;2.50;;;;;;;15.69;63.94;102121.44;4971930;28;20113;-95
2022/10/09 11:40:17;;;;;;;4.50;2.90;;;;;;;15.70;62.88;102117.91;4974967;28;20038;-95
2022/10/09 11:42:47;;;;;;;;;;;;;;;15.70;59.85;102112.69;4976481;28;20031;-94
2022/10/09 11:45:42;;;;;;;3.25;2.40;;;;;;;15.69;62.81;102110.97;4975843;28;20390;-94
2022/10/09 11:48:19;;;;;;;3.92;2.30;;;;;;;15.74;61.23;102101.25;4953963;29;20047;-94
2022/10/09 11:50:53;;;;;;;4.75;2.65;;;;;;;15.78;61.49;102107.31;4956509;29;20042;-93